createdAt,value
2022-09-28T21:29:28.896Z,98271.27
2022-09-28T21:31:56.929Z,98272.29
2022-09-28T21:34:25.448Z,98276.13
2022-09-28T21:36:52.806Z,98282.84
2022-09-28T21:39:20.403Z,98284.40
2022-09-28T21:41:47.510Z,98291.11
2022-09-28T21:44:14.731Z,98290.20
2022-09-28T21:46:42.295Z,98293.90
2022-09-28T21:49:11.009Z,98298.25
2022-09-28T21:51:38.362Z,98301.13
2022-09-28T21:54:05.822Z,98302.83
2022-09-28T21:56:32.883Z,98303.80
2022-09-28T21:59:01.488Z,98301.88
2022-09-28T22:01:29.495Z,98303.92
2022-09-28T22:03:57.875Z,98310.79
2022-09-28T22:06:29.762Z,98314.67
2022-09-28T22:08:57.630Z,98318.23
2022-09-28T22:11:27.375Z,98323.11
2022-09-28T22:13:57.357Z,98324.26
2022-09-28T22:16:27.758Z,98329.30
2022-09-28T22:18:54.931Z,98323.23
2022-09-28T22:21:27.647Z,98329.45
2022-09-28T22:23:58.398Z,98328.42
2022-09-28T22:26:26.422Z,98327.80
2022-09-28T22:28:59.222Z,98334.98
2022-09-28T22:31:32.288Z,98335.51
2022-09-28T22:33:59.847Z,98341.47
2022-09-28T22:36:27.100Z,98343.53
2022-09-28T22:38:55.255Z,98349.52
2022-09-28T22:41:23.549Z,98353.61
2022-09-28T22:43:52.443Z,98354.23
2022-09-28T22:46:22.479Z,98358.26
2022-09-28T22:48:57.497Z,98354.99
2022-09-28T22:51:26.586Z,98353.52
2022-09-28T22:53:53.634Z,98356.98
2022-09-28T22:56:20.786Z,98357.56
2022-09-28T22:58:48.343Z,98355.58
2022-09-28T23:01:17.541Z,98356.09
2022-09-28T23:03:45.203Z,98354.27
2022-09-28T23:06:16.229Z,98353.87
2022-09-28T23:08:44.783Z,98353.35
2022-09-28T23:11:12.080Z,98353.96
2022-09-28T23:13:39.640Z,98355.13
2022-09-28T23:16:15.830Z,98354.11
2022-09-28T23:18:43.057Z,98350.85
2022-09-28T23:21:15.312Z,98353.41
2022-09-28T23:23:47.288Z,98353.77
2022-09-28T23:26:23.447Z,98353.48
2022-09-28T23:28:51.110Z,98354.20
2022-09-28T23:31:30.112Z,98358.39
2022-09-28T23:34:02.821Z,98361.84
2022-09-28T23:36:30.751Z,98363.74
2022-09-28T23:38:58.346Z,98365.77
2022-09-28T23:41:25.828Z,98363.05
2022-09-28T23:43:52.856Z,98368.97
2022-09-28T23:46:21.175Z,98372.38
2022-09-28T23:48:49.812Z,98377.90
2022-09-28T23:51:17.678Z,98379.34
2022-09-28T23:53:45.712Z,98379.23
2022-09-28T23:56:14.552Z,98377.79
2022-09-28T23:58:41.762Z,98374.61
